sensor_id;sensor_type;location;lat;lon;timestamp;temperature;humidity
1049;DHT22;513;51.444;7.196;2023-02-28T00:00:46;0.10;1.00
1049;DHT22;513;51.444;7.196;2023-02-28T00:03:14;0.00;1.00
1049;DHT22;513;51.444;7.196;2023-02-28T00:05:41;0.10;1.00
1049;DHT22;513;51.444;7.196;2023-02-28T00:08:08;0.10;1.00
1049;DHT22;513;51.444;7.196;2023-02-28T00:10:35;0.10;1.00
1049;DHT22;513;51.444;7.196;2023-02-28T00:13:04;0.00;1.00
1049;DHT22;513;51.444;7.196;2023-02-28T00:15:32;0.20;1.00
1049;DHT22;513;51.444;7.196;2023-02-28T00:17:59;0.30;1.00
1049;DHT22;513;51.444;7.196;2023-02-28T00:20:27;0.40;1.00
1049;DHT22;513;51.444;7.196;2023-02-28T00:22:54;0.30;1.00
1049;DHT22;513;51.444;7.196;2023-02-28T00:25:23;0.30;1.00
1049;DHT22;513;51.444;7.196;2023-02-28T00:27:50;0.30;1.00
1049;DHT22;513;51.444;7.196;2023-02-28T00:30:18;0.30;1.00
1049;DHT22;513;51.444;7.196;2023-02-28T00:32:45;0.00;1.00
1049;DHT22;513;51.444;7.196;2023-02-28T00:35:12;-0.10;1.00
1049;DHT22;513;51.444;7.196;2023-02-28T00:37:40;-0.10;1.00
1049;DHT22;513;51.444;7.196;2023-02-28T00:40:08;-0.20;1.00
1049;DHT22;513;51.444;7.196;2023-02-28T00:42:36;-0.20;1.00
1049;DHT22;513;51.444;7.196;2023-02-28T00:45:04;-0.30;1.00
1049;DHT22;513;51.444;7.196;2023-02-28T00:47:31;-0.30;1.00
1049;DHT22;513;51.444;7.196;2023-02-28T00:49:58;-0.30;1.00
1049;DHT22;513;51.444;7.196;2023-02-28T00:52:24;-0.40;1.00
1049;DHT22;513;51.444;7.196;2023-02-28T00:54:52;-0.40;1.00
1049;DHT22;513;51.444;7.196;2023-02-28T00:57:19;-0.50;1.00
1049;DHT22;513;51.444;7.196;2023-02-28T00:59:45;-0.50;1.00
1049;DHT22;513;51.444;7.196;2023-02-28T01:02:12;-0.40;1.00
1049;DHT22;513;51.444;7.196;2023-02-28T01:04:39;-0.50;1.00
1049;DHT22;513;51.444;7.196;2023-02-28T01:07:05;-0.50;1.00
1049;DHT22;513;51.444;7.196;2023-02-28T01:09:32;-0.50;1.00
1049;DHT22;513;51.444;7.196;2023-02-28T01:12:00;-0.50;1.00
1049;DHT22;513;51.444;7.196;2023-02-28T01:14:26;-0.30;1.00
1049;DHT22;513;51.444;7.196;2023-02-28T01:16:53;-0.20;1.00
1049;DHT22;513;51.444;7.196;2023-02-28T01:19:19;-0.10;1.00
1049;DHT22;513;51.444;7.196;2023-02-28T01:21:46;0.00;1.00
1049;DHT22;513;51.444;7.196;2023-02-28T01:24:13;0.10;1.00
1049;DHT22;513;51.444;7.196;2023-02-28T01:26:39;0.20;1.00
1049;DHT22;513;51.444;7.196;2023-02-28T01:29:07;0.20;1.00
1049;DHT22;513;51.444;7.196;2023-02-28T01:31:34;0.20;1.00
1049;DHT22;513;51.444;7.196;2023-02-28T01:34:01;0.30;1.00
1049;DHT22;513;51.444;7.196;2023-02-28T01:36:28;0.30;1.00
1049;DHT22;513;51.444;7.196;2023-02-28T01:38:54;0.30;1.00
1049;DHT22;513;51.444;7.196;2023-02-28T01:41:25;0.30;1.00
1049;DHT22;513;51.444;7.196;2023-02-28T01:44:00;0.20;99.90
1049;DHT22;513;51.444;7.196;2023-02-28T01:46:31;0.20;99.90
1049;DHT22;513;51.444;7.196;2023-02-28T01:49:02;0.20;1.00
1049;DHT22;513;51.444;7.196;2023-02-28T01:51:34;0.20;1.00
1049;DHT22;513;51.444;7.196;2023-02-28T01:54:07;0.20;99.90
1049;DHT22;513;51.444;7.196;2023-02-28T01:56:40;0.10;99.90
1049;DHT22;513;51.444;7.196;2023-02-28T01:59:08;0.10;99.90
1049;DHT22;513;51.444;7.196;2023-02-28T02:01:36;0.20;99.90
1049;DHT22;513;51.444;7.196;2023-02-28T02:04:03;0.10;99.90
1049;DHT22;513;51.444;7.196;2023-02-28T02:06:34;0.10;99.90
1049;DHT22;513;51.444;7.196;2023-02-28T02:09:02;0.00;99.90
1049;DHT22;513;51.444;7.196;2023-02-28T02:11:29;0.00;99.90
1049;DHT22;513;51.444;7.196;2023-02-28T02:17:01;-0.20;1.00
1049;DHT22;513;51.444;7.196;2023-02-28T02:19:51;-0.20;1.00
1049;DHT22;513;51.444;7.196;2023-02-28T02:22:56;-0.20;1.00
1049;DHT22;513;51.444;7.196;2023-02-28T02:25:32;-0.20;1.00
1049;DHT22;513;51.444;7.196;2023-02-28T02:34:46;-0.50;1.00
1049;DHT22;513;51.444;7.196;2023-02-28T02:37:25;-0.50;1.00
1049;DHT22;513;51.444;7.196;2023-02-28T02:40:03;-0.60;1.00
1049;DHT22;513;51.444;7.196;2023-02-28T02:42:38;-0.90;1.00
1049;DHT22;513;51.444;7.196;2023-02-28T02:45:08;-1.20;1.00
1049;DHT22;513;51.444;7.196;2023-02-28T02:47:37;-1.40;1.00
1049;DHT22;513;51.444;7.196;2023-02-28T02:50:11;-1.30;1.00
1049;DHT22;513;51.444;7.196;2023-02-28T02:52:42;-1.40;1.00
1049;DHT22;513;51.444;7.196;2023-02-28T02:55:13;-1.50;1.00
1049;DHT22;513;51.444;7.196;2023-02-28T02:57:45;-1.30;1.00
1049;DHT22;513;51.444;7.196;2023-02-28T03:00:16;-1.40;1.00
1049;DHT22;513;51.444;7.196;2023-02-28T03:02:44;-1.60;1.00
1049;DHT22;513;51.444;7.196;2023-02-28T03:05:18;-1.70;1.00
1049;DHT22;513;51.444;7.196;2023-02-28T03:07:45;-1.70;10.80
1049;DHT22;513;51.444;7.196;2023-02-28T03:10:32;-1.70;16.80
1049;DHT22;513;51.444;7.196;2023-02-28T03:13:32;-1.60;20.20
1049;DHT22;513;51.444;7.196;2023-02-28T03:16:19;-1.60;11.80
1049;DHT22;513;51.444;7.196;2023-02-28T03:18:54;-1.70;10.20
1049;DHT22;513;51.444;7.196;2023-02-28T03:21:29;-1.70;13.30
1049;DHT22;513;51.444;7.196;2023-02-28T03:24:04;-1.70;15.90
1049;DHT22;513;51.444;7.196;2023-02-28T03:26:36;-1.70;18.70
1049;DHT22;513;51.444;7.196;2023-02-28T03:29:08;-1.60;16.70
1049;DHT22;513;51.444;7.196;2023-02-28T03:31:46;-1.50;10.60
1049;DHT22;513;51.444;7.196;2023-02-28T03:34:17;-1.40;5.30
1049;DHT22;513;51.444;7.196;2023-02-28T03:36:48;-1.30;1.00
1049;DHT22;513;51.444;7.196;2023-02-28T03:39:19;-1.20;1.00
1049;DHT22;513;51.444;7.196;2023-02-28T03:41:52;-1.10;1.00
1049;DHT22;513;51.444;7.196;2023-02-28T03:44:24;-1.10;1.00
1049;DHT22;513;51.444;7.196;2023-02-28T03:46:55;-1.30;1.00
1049;DHT22;513;51.444;7.196;2023-02-28T03:49:26;-1.50;1.00
1049;DHT22;513;51.444;7.196;2023-02-28T03:51:56;-1.70;1.00
1049;DHT22;513;51.444;7.196;2023-02-28T03:54:27;-1.80;1.00
1049;DHT22;513;51.444;7.196;2023-02-28T03:56:59;-1.80;1.00
1049;DHT22;513;51.444;7.196;2023-02-28T03:59:30;-1.90;5.80
1049;DHT22;513;51.444;7.196;2023-02-28T04:01:59;-1.90;7.40
1049;DHT22;513;51.444;7.196;2023-02-28T04:04:26;-1.90;5.20
1049;DHT22;513;51.444;7.196;2023-02-28T04:07:03;-2.00;6.20
1049;DHT22;513;51.444;7.196;2023-02-28T04:09:30;-1.80;7.00
1049;DHT22;513;51.444;7.196;2023-02-28T04:11:56;-1.90;6.30
1049;DHT22;513;51.444;7.196;2023-02-28T04:14:23;-1.70;5.30
1049;DHT22;513;51.444;7.196;2023-02-28T04:16:50;-1.80;1.00
1049;DHT22;513;51.444;7.196;2023-02-28T04:19:18;-1.90;1.00
1049;DHT22;513;51.444;7.196;2023-02-28T04:21:46;-1.90;1.80
1049;DHT22;513;51.444;7.196;2023-02-28T04:24:16;-2.00;1.70
1049;DHT22;513;51.444;7.196;2023-02-28T04:26:44;-2.00;4.30
1049;DHT22;513;51.444;7.196;2023-02-28T04:29:13;-2.10;7.10
1049;DHT22;513;51.444;7.196;2023-02-28T04:31:40;-2.10;10.10
1049;DHT22;513;51.444;7.196;2023-02-28T04:34:07;-2.10;11.60
1049;DHT22;513;51.444;7.196;2023-02-28T04:36:34;-2.20;11.60
1049;DHT22;513;51.444;7.196;2023-02-28T04:39:00;-2.10;12.90
1049;DHT22;513;51.444;7.196;2023-02-28T04:41:29;-2.20;15.90
1049;DHT22;513;51.444;7.196;2023-02-28T04:43:55;-2.10;17.00
1049;DHT22;513;51.444;7.196;2023-02-28T04:46:22;-2.10;13.20
1049;DHT22;513;51.444;7.196;2023-02-28T04:48:49;-2.20;14.70
1049;DHT22;513;51.444;7.196;2023-02-28T04:51:17;-2.20;16.80
1049;DHT22;513;51.444;7.196;2023-02-28T04:53:45;-2.30;19.30
1049;DHT22;513;51.444;7.196;2023-02-28T04:56:13;-2.30;20.60
1049;DHT22;513;51.444;7.196;2023-02-28T04:58:41;-2.30;21.80
1049;DHT22;513;51.444;7.196;2023-02-28T05:01:21;-2.30;21.60
1049;DHT22;513;51.444;7.196;2023-02-28T05:03:49;-2.30;20.40
1049;DHT22;513;51.444;7.196;2023-02-28T05:06:15;-2.30;20.00
1049;DHT22;513;51.444;7.196;2023-02-28T05:08:43;-2.30;18.70
1049;DHT22;513;51.444;7.196;2023-02-28T05:11:15;-2.30;18.80
1049;DHT22;513;51.444;7.196;2023-02-28T05:13:43;-2.40;19.60
1049;DHT22;513;51.444;7.196;2023-02-28T05:16:10;-2.40;22.60
1049;DHT22;513;51.444;7.196;2023-02-28T05:18:36;-2.50;23.50
1049;DHT22;513;51.444;7.196;2023-02-28T05:21:03;-2.40;25.50
1049;DHT22;513;51.444;7.196;2023-02-28T05:23:30;-2.50;29.00
1049;DHT22;513;51.444;7.196;2023-02-28T05:25:57;-2.50;29.80
1049;DHT22;513;51.444;7.196;2023-02-28T05:28:23;-2.50;31.50
1049;DHT22;513;51.444;7.196;2023-02-28T05:30:52;-2.50;32.00
1049;DHT22;513;51.444;7.196;2023-02-28T05:33:18;-2.50;31.90
1049;DHT22;513;51.444;7.196;2023-02-28T05:35:45;-2.40;32.40
1049;DHT22;513;51.444;7.196;2023-02-28T05:38:12;-2.50;31.60
1049;DHT22;513;51.444;7.196;2023-02-28T05:40:39;-2.50;32.00
1049;DHT22;513;51.444;7.196;2023-02-28T05:43:07;-2.50;33.70
1049;DHT22;513;51.444;7.196;2023-02-28T05:45:35;-2.50;32.70
1049;DHT22;513;51.444;7.196;2023-02-28T05:48:03;-2.50;34.40
1049;DHT22;513;51.444;7.196;2023-02-28T05:50:30;-2.60;37.50
1049;DHT22;513;51.444;7.196;2023-02-28T05:52:57;-2.60;39.40
1049;DHT22;513;51.444;7.196;2023-02-28T05:55:23;-2.50;40.90
1049;DHT22;513;51.444;7.196;2023-02-28T05:57:50;-2.50;39.60
1049;DHT22;513;51.444;7.196;2023-02-28T06:00:18;-2.50;38.80
1049;DHT22;513;51.444;7.196;2023-02-28T06:02:44;-2.60;38.50
1049;DHT22;513;51.444;7.196;2023-02-28T06:05:15;-2.60;40.50
1049;DHT22;513;51.444;7.196;2023-02-28T06:07:43;-2.60;42.00
1049;DHT22;513;51.444;7.196;2023-02-28T06:10:10;-2.60;41.80
1049;DHT22;513;51.444;7.196;2023-02-28T06:12:37;-2.60;41.70
1049;DHT22;513;51.444;7.196;2023-02-28T06:15:05;-2.60;43.30
1049;DHT22;513;51.444;7.196;2023-02-28T06:17:32;-2.50;42.40
1049;DHT22;513;51.444;7.196;2023-02-28T06:19:59;-2.50;40.90
1049;DHT22;513;51.444;7.196;2023-02-28T06:22:27;-2.50;38.10
1049;DHT22;513;51.444;7.196;2023-02-28T06:24:53;-2.60;35.20
1049;DHT22;513;51.444;7.196;2023-02-28T06:27:20;-2.60;37.70
1049;DHT22;513;51.444;7.196;2023-02-28T06:29:47;-2.60;40.40
1049;DHT22;513;51.444;7.196;2023-02-28T06:32:14;-2.40;41.10
1049;DHT22;513;51.444;7.196;2023-02-28T06:34:40;-2.20;37.20
1049;DHT22;513;51.444;7.196;2023-02-28T06:37:07;-2.10;30.80
1049;DHT22;513;51.444;7.196;2023-02-28T06:39:35;-2.00;26.20
1049;DHT22;513;51.444;7.196;2023-02-28T06:42:02;-1.80;20.00
1049;DHT22;513;51.444;7.196;2023-02-28T06:44:29;-1.70;12.10
1049;DHT22;513;51.444;7.196;2023-02-28T06:47:00;-1.70;3.20
1049;DHT22;513;51.444;7.196;2023-02-28T06:49:28;-1.70;1.00
1049;DHT22;513;51.444;7.196;2023-02-28T06:51:54;-1.60;1.00
1049;DHT22;513;51.444;7.196;2023-02-28T06:54:21;-1.50;1.00
1049;DHT22;513;51.444;7.196;2023-02-28T06:56:49;-1.50;1.00
1049;DHT22;513;51.444;7.196;2023-02-28T06:59:16;-1.50;1.00
1049;DHT22;513;51.444;7.196;2023-02-28T07:01:43;-1.50;1.00
1049;DHT22;513;51.444;7.196;2023-02-28T07:04:09;-1.60;1.00
1049;DHT22;513;51.444;7.196;2023-02-28T07:06:36;-2.00;1.00
1049;DHT22;513;51.444;7.196;2023-02-28T07:09:03;-2.20;1.00
1049;DHT22;513;51.444;7.196;2023-02-28T07:11:30;-2.00;1.00
1049;DHT22;513;51.444;7.196;2023-02-28T07:13:58;-1.90;1.00
1049;DHT22;513;51.444;7.196;2023-02-28T07:16:25;-1.90;1.00
1049;DHT22;513;51.444;7.196;2023-02-28T07:18:52;-1.90;1.00
1049;DHT22;513;51.444;7.196;2023-02-28T07:21:20;-2.00;1.00
1049;DHT22;513;51.444;7.196;2023-02-28T07:23:46;-1.90;1.00
1049;DHT22;513;51.444;7.196;2023-02-28T07:26:15;-1.90;1.00
1049;DHT22;513;51.444;7.196;2023-02-28T07:28:42;-1.80;1.00
1049;DHT22;513;51.444;7.196;2023-02-28T07:31:12;-1.70;1.00
1049;DHT22;513;51.444;7.196;2023-02-28T07:33:39;-1.70;1.00
1049;DHT22;513;51.444;7.196;2023-02-28T07:36:08;-1.70;1.00
1049;DHT22;513;51.444;7.196;2023-02-28T07:38:35;-1.50;1.00
1049;DHT22;513;51.444;7.196;2023-02-28T07:41:03;-0.90;1.00
1049;DHT22;513;51.444;7.196;2023-02-28T07:43:31;-1.40;1.00
1049;DHT22;513;51.444;7.196;2023-02-28T07:46:02;-1.30;1.00
1049;DHT22;513;51.444;7.196;2023-02-28T07:48:30;-1.20;1.00
1049;DHT22;513;51.444;7.196;2023-02-28T07:50:57;-1.20;1.00
1049;DHT22;513;51.444;7.196;2023-02-28T07:53:24;-1.20;1.00
1049;DHT22;513;51.444;7.196;2023-02-28T07:55:54;-1.10;1.00
1049;DHT22;513;51.444;7.196;2023-02-28T07:58:21;-1.10;99.90
1049;DHT22;513;51.444;7.196;2023-02-28T08:00:48;-1.10;99.90
1049;DHT22;513;51.444;7.196;2023-02-28T08:03:14;-1.10;1.00
1049;DHT22;513;51.444;7.196;2023-02-28T08:05:42;-1.00;99.90
1049;DHT22;513;51.444;7.196;2023-02-28T08:08:09;-0.80;99.90
1049;DHT22;513;51.444;7.196;2023-02-28T08:10:36;-0.80;99.90
1049;DHT22;513;51.444;7.196;2023-02-28T08:13:03;-0.60;99.90
1049;DHT22;513;51.444;7.196;2023-02-28T08:15:30;-0.50;99.90
1049;DHT22;513;51.444;7.196;2023-02-28T08:17:57;-0.50;99.90
1049;DHT22;513;51.444;7.196;2023-02-28T08:20:23;-0.60;99.90
1049;DHT22;513;51.444;7.196;2023-02-28T08:22:51;-0.50;99.90
1049;DHT22;513;51.444;7.196;2023-02-28T08:25:18;-0.60;99.90
1049;DHT22;513;51.444;7.196;2023-02-28T08:27:45;-0.60;99.90
1049;DHT22;513;51.444;7.196;2023-02-28T08:30:14;-0.60;99.90
1049;DHT22;513;51.444;7.196;2023-02-28T08:32:41;-0.50;61.70
1049;DHT22;513;51.444;7.196;2023-02-28T08:35:08;-0.50;1.00
1049;DHT22;513;51.444;7.196;2023-02-28T08:37:35;-0.50;1.00
1049;DHT22;513;51.444;7.196;2023-02-28T08:40:04;-0.50;1.00
1049;DHT22;513;51.444;7.196;2023-02-28T08:42:32;-0.40;1.00
1049;DHT22;513;51.444;7.196;2023-02-28T08:44:58;-0.30;99.90
1049;DHT22;513;51.444;7.196;2023-02-28T08:47:25;-0.50;1.00
1049;DHT22;513;51.444;7.196;2023-02-28T08:49:52;0.20;1.00
1049;DHT22;513;51.444;7.196;2023-02-28T08:52:19;0.20;99.90
1049;DHT22;513;51.444;7.196;2023-02-28T08:54:45;0.30;99.90
1049;DHT22;513;51.444;7.196;2023-02-28T08:57:13;0.30;99.90
1049;DHT22;513;51.444;7.196;2023-02-28T08:59:40;0.20;1.00
1049;DHT22;513;51.444;7.196;2023-02-28T09:02:08;0.40;99.90
1049;DHT22;513;51.444;7.196;2023-02-28T09:04:36;0.50;99.90
1049;DHT22;513;51.444;7.196;2023-02-28T09:07:02;0.60;41.70
1049;DHT22;513;51.444;7.196;2023-02-28T09:09:29;0.70;99.90
1049;DHT22;513;51.444;7.196;2023-02-28T09:11:56;0.80;1.00
1049;DHT22;513;51.444;7.196;2023-02-28T09:14:24;1.00;1.00
1049;DHT22;513;51.444;7.196;2023-02-28T09:16:51;1.20;1.00
1049;DHT22;513;51.444;7.196;2023-02-28T09:19:18;1.30;99.90
1049;DHT22;513;51.444;7.196;2023-02-28T09:21:45;1.40;99.90
1049;DHT22;513;51.444;7.196;2023-02-28T09:24:11;1.40;99.90
1049;DHT22;513;51.444;7.196;2023-02-28T09:26:40;1.60;53.90
1049;DHT22;513;51.444;7.196;2023-02-28T09:29:07;1.90;50.20
1049;DHT22;513;51.444;7.196;2023-02-28T09:31:35;2.00;1.00
1049;DHT22;513;51.444;7.196;2023-02-28T09:34:03;2.00;1.00
1049;DHT22;513;51.444;7.196;2023-02-28T09:36:30;1.80;1.00
1049;DHT22;513;51.444;7.196;2023-02-28T09:38:56;1.70;1.00
1049;DHT22;513;51.444;7.196;2023-02-28T09:41:24;1.80;1.00
1049;DHT22;513;51.444;7.196;2023-02-28T09:43:56;2.00;1.00
1049;DHT22;513;51.444;7.196;2023-02-28T09:46:28;2.20;1.00
1049;DHT22;513;51.444;7.196;2023-02-28T09:49:00;2.30;99.90
1049;DHT22;513;51.444;7.196;2023-02-28T09:51:34;2.30;99.90
1049;DHT22;513;51.444;7.196;2023-02-28T09:54:04;2.30;99.90
1049;DHT22;513;51.444;7.196;2023-02-28T09:56:34;2.40;99.90
1049;DHT22;513;51.444;7.196;2023-02-28T09:59:05;2.20;99.90
1049;DHT22;513;51.444;7.196;2023-02-28T10:01:40;2.30;99.90
1049;DHT22;513;51.444;7.196;2023-02-28T10:04:16;2.40;99.90
1049;DHT22;513;51.444;7.196;2023-02-28T10:06:47;2.50;99.90
1049;DHT22;513;51.444;7.196;2023-02-28T10:09:17;2.50;99.90
1049;DHT22;513;51.444;7.196;2023-02-28T10:11:46;2.70;99.90
1049;DHT22;513;51.444;7.196;2023-02-28T10:14:16;2.80;99.90
1049;DHT22;513;51.444;7.196;2023-02-28T10:16:46;2.80;99.90
1049;DHT22;513;51.444;7.196;2023-02-28T10:19:22;2.90;99.90
1049;DHT22;513;51.444;7.196;2023-02-28T10:21:55;2.80;99.90
1049;DHT22;513;51.444;7.196;2023-02-28T10:24:27;2.80;99.90
1049;DHT22;513;51.444;7.196;2023-02-28T10:27:00;3.00;99.90
1049;DHT22;513;51.444;7.196;2023-02-28T10:29:27;2.90;99.90
1049;DHT22;513;51.444;7.196;2023-02-28T10:31:55;2.80;99.90
1049;DHT22;513;51.444;7.196;2023-02-28T10:34:24;2.70;99.90
1049;DHT22;513;51.444;7.196;2023-02-28T10:36:51;3.00;99.90
1049;DHT22;513;51.444;7.196;2023-02-28T10:39:38;3.20;99.90
1049;DHT22;513;51.444;7.196;2023-02-28T10:42:19;3.20;99.90
1049;DHT22;513;51.444;7.196;2023-02-28T10:44:47;3.40;99.90
1049;DHT22;513;51.444;7.196;2023-02-28T10:47:15;3.60;99.90
1049;DHT22;513;51.444;7.196;2023-02-28T10:49:49;3.40;99.90
1049;DHT22;513;51.444;7.196;2023-02-28T10:52:34;3.30;99.90
1049;DHT22;513;51.444;7.196;2023-02-28T10:55:20;3.60;99.90
1049;DHT22;513;51.444;7.196;2023-02-28T10:57:48;3.80;99.90
1049;DHT22;513;51.444;7.196;2023-02-28T11:00:16;3.50;99.90
1049;DHT22;513;51.444;7.196;2023-02-28T11:02:44;3.40;99.90
1049;DHT22;513;51.444;7.196;2023-02-28T11:05:28;3.30;99.90
1049;DHT22;513;51.444;7.196;2023-02-28T11:08:02;3.60;99.90
1049;DHT22;513;51.444;7.196;2023-02-28T11:10:31;3.00;99.90
1049;DHT22;513;51.444;7.196;2023-02-28T11:13:00;2.90;99.90
1049;DHT22;513;51.444;7.196;2023-02-28T11:15:29;3.00;99.90
1049;DHT22;513;51.444;7.196;2023-02-28T11:17:59;3.20;99.90
1049;DHT22;513;51.444;7.196;2023-02-28T11:20:30;3.40;99.90
1049;DHT22;513;51.444;7.196;2023-02-28T11:22:58;3.70;99.90
1049;DHT22;513;51.444;7.196;2023-02-28T11:25:30;3.70;99.90
1049;DHT22;513;51.444;7.196;2023-02-28T11:27:58;3.80;99.90
1049;DHT22;513;51.444;7.196;2023-02-28T11:30:32;3.80;99.90
1049;DHT22;513;51.444;7.196;2023-02-28T11:33:00;3.70;99.90
1049;DHT22;513;51.444;7.196;2023-02-28T11:35:32;3.80;99.90
1049;DHT22;513;51.444;7.196;2023-02-28T11:38:00;3.70;99.90
1049;DHT22;513;51.444;7.196;2023-02-28T11:40:36;3.20;99.90
1049;DHT22;513;51.444;7.196;2023-02-28T11:43:18;3.10;99.90
1049;DHT22;513;51.444;7.196;2023-02-28T11:45:54;2.90;99.90
1049;DHT22;513;51.444;7.196;2023-02-28T11:48:28;2.90;99.90
1049;DHT22;513;51.444;7.196;2023-02-28T11:51:07;3.10;99.90
1049;DHT22;513;51.444;7.196;2023-02-28T11:56:38;3.60;99.90
1049;DHT22;513;51.444;7.196;2023-02-28T11:59:22;3.70;99.90
1049;DHT22;513;51.444;7.196;2023-02-28T12:02:06;3.60;99.90
1049;DHT22;513;51.444;7.196;2023-02-28T12:04:52;3.60;99.90
1049;DHT22;513;51.444;7.196;2023-02-28T12:07:28;3.80;99.90
1049;DHT22;513;51.444;7.196;2023-02-28T12:10:03;4.10;99.90
1049;DHT22;513;51.444;7.196;2023-02-28T12:12:40;4.10;99.90
1049;DHT22;513;51.444;7.196;2023-02-28T12:15:27;4.20;99.90
1049;DHT22;513;51.444;7.196;2023-02-28T12:18:09;4.30;99.90
1049;DHT22;513;51.444;7.196;2023-02-28T12:20:42;4.40;99.90
1049;DHT22;513;51.444;7.196;2023-02-28T12:26:18;4.80;99.90
1049;DHT22;513;51.444;7.196;2023-02-28T12:28:50;4.80;99.90
1049;DHT22;513;51.444;7.196;2023-02-28T12:31:20;4.40;99.90
1049;DHT22;513;51.444;7.196;2023-02-28T12:33:52;4.50;99.90
1049;DHT22;513;51.444;7.196;2023-02-28T12:36:20;4.40;99.90
1049;DHT22;513;51.444;7.196;2023-02-28T12:38:53;4.40;99.90
1049;DHT22;513;51.444;7.196;2023-02-28T12:41:27;4.30;99.90
1049;DHT22;513;51.444;7.196;2023-02-28T12:44:00;4.30;99.90
1049;DHT22;513;51.444;7.196;2023-02-28T12:46:30;5.00;99.90
1049;DHT22;513;51.444;7.196;2023-02-28T12:49:02;4.60;99.90
1049;DHT22;513;51.444;7.196;2023-02-28T12:51:31;4.60;99.90
1049;DHT22;513;51.444;7.196;2023-02-28T12:54:07;4.60;99.90
1049;DHT22;513;51.444;7.196;2023-02-28T12:56:38;4.40;99.90
1049;DHT22;513;51.444;7.196;2023-02-28T12:59:10;4.10;99.90
1049;DHT22;513;51.444;7.196;2023-02-28T13:04:39;4.50;99.90
1049;DHT22;513;51.444;7.196;2023-02-28T13:07:12;4.40;99.90
1049;DHT22;513;51.444;7.196;2023-02-28T13:09:44;4.60;99.90
1049;DHT22;513;51.444;7.196;2023-02-28T13:12:17;4.60;99.90
1049;DHT22;513;51.444;7.196;2023-02-28T13:14:45;4.70;99.90
1049;DHT22;513;51.444;7.196;2023-02-28T13:17:13;4.70;99.90
1049;DHT22;513;51.444;7.196;2023-02-28T13:19:45;4.50;99.90
1049;DHT22;513;51.444;7.196;2023-02-28T13:22:16;4.40;99.90
1049;DHT22;513;51.444;7.196;2023-02-28T13:24:45;4.40;99.90
1049;DHT22;513;51.444;7.196;2023-02-28T13:29:57;4.40;99.90
1049;DHT22;513;51.444;7.196;2023-02-28T13:32:33;4.50;99.90
1049;DHT22;513;51.444;7.196;2023-02-28T13:37:47;4.60;99.90
1049;DHT22;513;51.444;7.196;2023-02-28T13:40:31;4.50;99.90
1049;DHT22;513;51.444;7.196;2023-02-28T13:43:02;4.40;99.90
1049;DHT22;513;51.444;7.196;2023-02-28T13:45:29;4.50;99.90
1049;DHT22;513;51.444;7.196;2023-02-28T13:48:02;4.50;99.90
1049;DHT22;513;51.444;7.196;2023-02-28T13:50:31;4.60;99.90
1049;DHT22;513;51.444;7.196;2023-02-28T13:53:02;4.80;99.90
1049;DHT22;513;51.444;7.196;2023-02-28T13:55:34;4.80;99.90
1049;DHT22;513;51.444;7.196;2023-02-28T13:58:10;4.80;99.90
1049;DHT22;513;51.444;7.196;2023-02-28T14:00:45;4.60;99.90
1049;DHT22;513;51.444;7.196;2023-02-28T14:03:23;4.40;99.90
1049;DHT22;513;51.444;7.196;2023-02-28T14:06:09;4.40;99.90
1049;DHT22;513;51.444;7.196;2023-02-28T14:08:44;4.40;99.90
1049;DHT22;513;51.444;7.196;2023-02-28T14:11:23;4.40;99.90
1049;DHT22;513;51.444;7.196;2023-02-28T14:13:50;4.50;99.90
1049;DHT22;513;51.444;7.196;2023-02-28T14:16:19;4.40;99.90
1049;DHT22;513;51.444;7.196;2023-02-28T14:18:48;4.50;99.90
1049;DHT22;513;51.444;7.196;2023-02-28T14:21:21;4.50;99.90
1049;DHT22;513;51.444;7.196;2023-02-28T14:24:01;4.50;99.90
1049;DHT22;513;51.444;7.196;2023-02-28T14:26:47;4.50;99.90
1049;DHT22;513;51.444;7.196;2023-02-28T14:29:37;4.30;99.90
1049;DHT22;513;51.444;7.196;2023-02-28T14:32:15;4.20;99.90
1049;DHT22;513;51.444;7.196;2023-02-28T14:34:52;4.30;99.90
1049;DHT22;513;51.444;7.196;2023-02-28T14:37:25;4.20;99.90
1049;DHT22;513;51.444;7.196;2023-02-28T14:39:53;4.10;99.90
1049;DHT22;513;51.444;7.196;2023-02-28T14:42:31;4.20;99.90
1049;DHT22;513;51.444;7.196;2023-02-28T14:44:58;4.30;99.90
1049;DHT22;513;51.444;7.196;2023-02-28T14:47:28;4.30;99.90
1049;DHT22;513;51.444;7.196;2023-02-28T14:49:57;4.20;99.90
1049;DHT22;513;51.444;7.196;2023-02-28T14:52:26;4.20;99.90
1049;DHT22;513;51.444;7.196;2023-02-28T14:54:56;4.30;99.90
1049;DHT22;513;51.444;7.196;2023-02-28T14:57:26;4.40;99.90
1049;DHT22;513;51.444;7.196;2023-02-28T15:00:03;4.30;99.90
1049;DHT22;513;51.444;7.196;2023-02-28T15:02:34;4.30;99.90
1049;DHT22;513;51.444;7.196;2023-02-28T15:05:13;4.30;99.90
1049;DHT22;513;51.444;7.196;2023-02-28T15:07:43;4.30;99.90
1049;DHT22;513;51.444;7.196;2023-02-28T15:10:13;4.20;99.90
1049;DHT22;513;51.444;7.196;2023-02-28T15:12:50;4.20;99.90
1049;DHT22;513;51.444;7.196;2023-02-28T15:15:20;4.20;99.90
1049;DHT22;513;51.444;7.196;2023-02-28T15:17:51;4.30;99.90
1049;DHT22;513;51.444;7.196;2023-02-28T15:20:19;4.20;99.90
1049;DHT22;513;51.444;7.196;2023-02-28T15:22:47;4.20;99.90
1049;DHT22;513;51.444;7.196;2023-02-28T15:25:20;4.20;99.90
1049;DHT22;513;51.444;7.196;2023-02-28T15:27:48;4.10;99.90
1049;DHT22;513;51.444;7.196;2023-02-28T15:30:19;4.00;99.90
1049;DHT22;513;51.444;7.196;2023-02-28T15:33:06;4.10;99.90
1049;DHT22;513;51.444;7.196;2023-02-28T15:35:34;4.20;99.90
1049;DHT22;513;51.444;7.196;2023-02-28T15:38:02;4.10;99.90
1049;DHT22;513;51.444;7.196;2023-02-28T15:40:33;4.20;99.90
1049;DHT22;513;51.444;7.196;2023-02-28T15:43:07;4.20;99.90
1049;DHT22;513;51.444;7.196;2023-02-28T15:45:37;4.10;99.90
1049;DHT22;513;51.444;7.196;2023-02-28T15:48:15;4.10;99.90
1049;DHT22;513;51.444;7.196;2023-02-28T15:50:43;4.00;99.90
1049;DHT22;513;51.444;7.196;2023-02-28T15:53:15;4.00;99.90
1049;DHT22;513;51.444;7.196;2023-02-28T15:55:42;4.00;99.90
1049;DHT22;513;51.444;7.196;2023-02-28T15:58:11;4.00;99.90
1049;DHT22;513;51.444;7.196;2023-02-28T16:00:43;4.00;99.90
1049;DHT22;513;51.444;7.196;2023-02-28T16:03:25;4.20;99.90
1049;DHT22;513;51.444;7.196;2023-02-28T16:06:17;4.10;99.90
1049;DHT22;513;51.444;7.196;2023-02-28T16:08:48;4.10;99.90
1049;DHT22;513;51.444;7.196;2023-02-28T16:11:16;4.10;99.90
1049;DHT22;513;51.444;7.196;2023-02-28T16:13:43;4.00;99.90
1049;DHT22;513;51.444;7.196;2023-02-28T16:16:16;4.00;99.90
1049;DHT22;513;51.444;7.196;2023-02-28T16:18:43;4.00;99.90
1049;DHT22;513;51.444;7.196;2023-02-28T16:21:10;4.00;99.90
1049;DHT22;513;51.444;7.196;2023-02-28T16:23:37;3.90;99.90
1049;DHT22;513;51.444;7.196;2023-02-28T16:26:08;3.90;99.90
1049;DHT22;513;51.444;7.196;2023-02-28T16:28:36;3.80;99.90
1049;DHT22;513;51.444;7.196;2023-02-28T16:31:06;3.90;99.90
1049;DHT22;513;51.444;7.196;2023-02-28T16:33:34;3.90;99.90
1049;DHT22;513;51.444;7.196;2023-02-28T16:36:01;3.70;99.90
1049;DHT22;513;51.444;7.196;2023-02-28T16:38:28;3.70;99.90
1049;DHT22;513;51.444;7.196;2023-02-28T16:40:56;3.70;99.90
1049;DHT22;513;51.444;7.196;2023-02-28T16:43:26;3.70;99.90
1049;DHT22;513;51.444;7.196;2023-02-28T16:45:55;3.70;99.90
1049;DHT22;513;51.444;7.196;2023-02-28T16:48:21;3.60;99.90
1049;DHT22;513;51.444;7.196;2023-02-28T16:50:49;3.60;99.90
1049;DHT22;513;51.444;7.196;2023-02-28T16:53:16;3.50;99.90
1049;DHT22;513;51.444;7.196;2023-02-28T16:55:43;3.50;99.90
1049;DHT22;513;51.444;7.196;2023-02-28T16:58:14;3.50;99.90
1049;DHT22;513;51.444;7.196;2023-02-28T17:00:42;3.50;99.90
1049;DHT22;513;51.444;7.196;2023-02-28T17:03:19;3.40;99.90
1049;DHT22;513;51.444;7.196;2023-02-28T17:05:47;3.40;99.90
1049;DHT22;513;51.444;7.196;2023-02-28T17:08:16;3.30;99.90
1049;DHT22;513;51.444;7.196;2023-02-28T17:10:43;3.30;99.90
1049;DHT22;513;51.444;7.196;2023-02-28T17:13:09;3.30;99.90
1049;DHT22;513;51.444;7.196;2023-02-28T17:15:37;3.20;99.90